sensor_id;sensor_type;location;lat;lon;timestamp;pressure;altitude;pressure_sealevel;temperature;humidity
9261;BME280;4667;42.726;23.252;2024-02-04T08:24:07;95399.56;;;11.39;44.40
9261;BME280;4667;42.726;23.252;2024-02-04T08:26:36;95605.34;;;12.83;44.49
9261;BME280;4667;42.726;23.252;2024-02-04T08:31:57;94860.84;;;8.23;43.68
9261;BME280;4667;42.726;23.252;2024-02-04T11:57:41;95587.84;;;12.49;48.37
9261;BME280;4667;42.726;23.252;2024-02-04T12:00:10;95488.28;;;12.38;47.07
9261;BME280;4667;42.726;23.252;2024-02-04T12:02:38;95257.22;;;11.38;45.14
9261;BME280;4667;42.726;23.252;2024-02-04T12:05:06;95005.69;;;9.60;45.02
9261;BME280;4667;42.726;23.252;2024-02-04T12:07:46;95073.91;;;10.59;43.54
9261;BME280;4667;42.726;23.252;2024-02-04T12:10:18;95519.28;;;13.65;43.22
9261;BME280;4667;42.726;23.252;2024-02-04T12:12:48;95329.66;;;12.11;43.38
9261;BME280;4667;42.726;23.252;2024-02-04T12:15:17;95013.44;;;9.94;44.08
9261;BME280;4667;42.726;23.252;2024-02-04T12:17:44;95351.81;;;12.00;44.75
9261;BME280;4667;42.726;23.252;2024-02-04T12:20:13;95556.28;;;13.44;44.19
9261;BME280;4667;42.726;23.252;2024-02-04T12:22:47;95254.84;;;11.36;43.78
9261;BME280;4667;42.726;23.252;2024-02-04T12:25:58;95552.16;;;13.64;43.72
9261;BME280;4667;42.726;23.252;2024-02-04T12:28:58;95270.66;;;12.01;43.40
9261;BME280;4667;42.726;23.252;2024-02-04T12:31:26;94726.22;;;9.09;42.70
9261;BME280;4667;42.726;23.252;2024-02-04T12:33:59;95319.22;;;13.77;40.95
9261;BME280;4667;42.726;23.252;2024-02-04T12:36:30;95221.63;;;13.85;39.58
9261;BME280;4667;42.726;23.252;2024-02-04T12:38:59;95216.59;;;13.98;38.29
9261;BME280;4667;42.726;23.252;2024-02-04T12:41:28;94716.69;;;11.79;37.13
9261;BME280;4667;42.726;23.252;2024-02-04T12:44:00;94515.16;;;10.53;36.77
9261;BME280;4667;42.726;23.252;2024-02-04T12:46:29;95126.59;;;14.77;36.42
9261;BME280;4667;42.726;23.252;2024-02-04T12:48:58;95548.22;;;17.77;35.54
9261;BME280;4667;42.726;23.252;2024-02-04T12:51:26;95456.97;;;17.75;34.43
9261;BME280;4667;42.726;23.252;2024-02-04T12:54:06;94662.84;;;12.89;34.04
9261;BME280;4667;42.726;23.252;2024-02-04T12:56:41;95194.97;;;16.22;33.91
9261;BME280;4667;42.726;23.252;2024-02-04T12:59:10;95451.31;;;18.00;33.71
9261;BME280;4667;42.726;23.252;2024-02-04T13:01:42;95491.09;;;18.72;33.03
9261;BME280;4667;42.726;23.252;2024-02-04T13:04:17;95141.16;;;16.30;32.50
9261;BME280;4667;42.726;23.252;2024-02-04T13:06:48;95516.53;;;19.02;32.39
9261;BME280;4667;42.726;23.252;2024-02-04T13:09:18;94990.38;;;15.11;33.04
9261;BME280;4667;42.726;23.252;2024-02-04T13:11:48;95250.88;;;16.70;32.69
9261;BME280;4667;42.726;23.252;2024-02-04T13:14:17;94902.19;;;13.92;33.86
9261;BME280;4667;42.726;23.252;2024-02-04T13:16:47;95520.78;;;18.70;33.28
9261;BME280;4667;42.726;23.252;2024-02-04T13:19:16;95241.72;;;16.33;33.73
9261;BME280;4667;42.726;23.252;2024-02-04T13:24:11;95025.34;;;13.45;35.96
9261;BME280;4667;42.726;23.252;2024-02-04T13:26:39;94678.38;;;10.75;37.08
9261;BME280;4667;42.726;23.252;2024-02-04T13:31:43;95349.16;;;15.24;36.96
9261;BME280;4667;42.726;23.252;2024-02-04T13:34:12;94555.66;;;10.11;36.76
9261;BME280;4667;42.726;23.252;2024-02-04T13:36:42;95372.34;;;15.03;36.85
9261;BME280;4667;42.726;23.252;2024-02-04T13:39:09;95350.84;;;15.54;36.38
9261;BME280;4667;42.726;23.252;2024-02-04T13:41:38;95353.34;;;15.85;36.02
9261;BME280;4667;42.726;23.252;2024-02-04T13:44:05;95496.09;;;16.78;35.69
9261;BME280;4667;42.726;23.252;2024-02-04T13:46:35;95384.16;;;16.25;34.93
9261;BME280;4667;42.726;23.252;2024-02-04T13:49:03;95344.53;;;16.24;35.09
9261;BME280;4667;42.726;23.252;2024-02-04T13:51:34;95354.38;;;16.52;34.28
9261;BME280;4667;42.726;23.252;2024-02-04T13:54:02;95556.28;;;17.66;34.26
9261;BME280;4667;42.726;23.252;2024-02-04T13:56:29;95360.13;;;16.35;34.39
9261;BME280;4667;42.726;23.252;2024-02-04T13:58:58;95503.72;;;16.56;35.59
9261;BME280;4667;42.726;23.252;2024-02-04T14:01:25;95558.50;;;16.23;37.07
9261;BME280;4667;42.726;23.252;2024-02-04T14:03:52;95329.69;;;14.79;37.29
9261;BME280;4667;42.726;23.252;2024-02-04T14:06:21;95494.19;;;16.05;37.10
9261;BME280;4667;42.726;23.252;2024-02-04T14:08:49;95299.84;;;14.02;38.51
9261;BME280;4667;42.726;23.252;2024-02-04T14:11:16;95526.09;;;15.36;38.69
9261;BME280;4667;42.726;23.252;2024-02-04T14:13:44;95360.28;;;13.90;38.83
9261;BME280;4667;42.726;23.252;2024-02-04T14:16:11;95374.09;;;13.97;39.31
9261;BME280;4667;42.726;23.252;2024-02-04T14:18:38;95566.25;;;14.73;40.56
9261;BME280;4667;42.726;23.252;2024-02-04T14:21:10;95547.66;;;14.68;40.48
9261;BME280;4667;42.726;23.252;2024-02-04T14:23:40;95531.91;;;14.15;41.22
9261;BME280;4667;42.726;23.252;2024-02-04T14:26:16;95547.56;;;14.22;41.48
9261;BME280;4667;42.726;23.252;2024-02-04T14:28:43;95527.78;;;13.67;42.21
9261;BME280;4667;42.726;23.252;2024-02-04T14:31:10;95328.94;;;12.21;42.90
9261;BME280;4667;42.726;23.252;2024-02-04T14:33:37;95313.47;;;12.03;42.96
9261;BME280;4667;42.726;23.252;2024-02-04T14:36:06;95566.34;;;13.42;43.79
9261;BME280;4667;42.726;23.252;2024-02-04T14:38:35;95425.72;;;12.22;44.48
9261;BME280;4667;42.726;23.252;2024-02-04T14:41:05;95567.16;;;13.06;44.82
9261;BME280;4667;42.726;23.252;2024-02-04T14:43:33;95511.19;;;12.55;45.24
9261;BME280;4667;42.726;23.252;2024-02-04T14:46:03;95564.84;;;12.82;45.50
9261;BME280;4667;42.726;23.252;2024-02-04T14:48:35;95353.16;;;11.22;46.08
9261;BME280;4667;42.726;23.252;2024-02-04T14:51:06;95080.25;;;9.44;46.34
9261;BME280;4667;42.726;23.252;2024-02-04T14:53:41;94887.84;;;8.02;46.25
9261;BME280;4667;42.726;23.252;2024-02-04T14:56:10;94677.63;;;6.69;46.04
9261;BME280;4667;42.726;23.252;2024-02-04T14:58:38;95572.13;;;12.38;46.90
9261;BME280;4667;42.726;23.252;2024-02-04T15:01:09;95270.03;;;10.31;47.19
9261;BME280;4667;42.726;23.252;2024-02-04T15:03:37;95472.50;;;11.45;47.54
9261;BME280;4667;42.726;23.252;2024-02-04T15:06:05;95561.22;;;12.07;47.57
9261;BME280;4667;42.726;23.252;2024-02-04T15:08:32;95450.00;;;11.16;48.00
9261;BME280;4667;42.726;23.252;2024-02-04T15:11:14;95573.13;;;11.83;48.41
9261;BME280;4667;42.726;23.252;2024-02-04T15:13:43;95374.13;;;10.46;48.10
9261;BME280;4667;42.726;23.252;2024-02-04T15:16:12;95379.16;;;10.69;48.36
9261;BME280;4667;42.726;23.252;2024-02-04T15:18:45;95587.84;;;11.79;48.68
9261;BME280;4667;42.726;23.252;2024-02-04T15:21:15;95563.00;;;11.58;49.16
9261;BME280;4667;42.726;23.252;2024-02-04T15:23:43;94893.25;;;7.33;49.04
9261;BME280;4667;42.726;23.252;2024-02-04T15:26:17;94824.97;;;6.59;48.90
9261;BME280;4667;42.726;23.252;2024-02-04T15:28:50;95533.78;;;11.26;50.05
9261;BME280;4667;42.726;23.252;2024-02-04T15:31:19;95555.94;;;11.41;49.83
9261;BME280;4667;42.726;23.252;2024-02-04T15:33:55;94967.03;;;7.65;49.74
9261;BME280;4667;42.726;23.252;2024-02-04T15:36:23;95329.31;;;9.61;50.83
9261;BME280;4667;42.726;23.252;2024-02-04T15:38:51;95568.84;;;11.21;50.89
9261;BME280;4667;42.726;23.252;2024-02-04T15:41:22;95572.50;;;11.20;50.60
9261;BME280;4667;42.726;23.252;2024-02-04T15:43:53;95435.94;;;10.21;50.71
9261;BME280;4667;42.726;23.252;2024-02-04T15:46:20;95563.81;;;11.03;50.82
9261;BME280;4667;42.726;23.252;2024-02-04T15:48:52;95415.88;;;10.20;50.39
9261;BME280;4667;42.726;23.252;2024-02-04T15:51:20;95579.75;;;11.08;50.40
9261;BME280;4667;42.726;23.252;2024-02-04T15:53:48;95577.91;;;11.08;50.59
9261;BME280;4667;42.726;23.252;2024-02-04T15:56:19;95578.69;;;11.09;50.78
9261;BME280;4667;42.726;23.252;2024-02-04T15:58:58;95511.16;;;10.57;50.83
9261;BME280;4667;42.726;23.252;2024-02-04T16:01:33;95270.22;;;9.07;50.41
9261;BME280;4667;42.726;23.252;2024-02-04T16:04:01;95246.09;;;8.81;51.12
9261;BME280;4667;42.726;23.252;2024-02-04T16:06:29;95188.16;;;8.48;50.83
9261;BME280;4667;42.726;23.252;2024-02-04T16:08:58;95472.13;;;10.09;50.47
9261;BME280;4667;42.726;23.252;2024-02-04T16:11:26;95555.84;;;10.81;51.28
9261;BME280;4667;42.726;23.252;2024-02-04T16:13:55;95480.94;;;10.31;51.09
9261;BME280;4667;42.726;23.252;2024-02-04T16:16:33;95566.00;;;10.72;50.97
9261;BME280;4667;42.726;23.252;2024-02-04T16:19:02;95468.25;;;10.00;52.00
9261;BME280;4667;42.726;23.252;2024-02-04T16:21:31;95559.34;;;10.53;51.85
9261;BME280;4667;42.726;23.252;2024-02-04T16:23:58;95519.94;;;10.29;51.54
9261;BME280;4667;42.726;23.252;2024-02-04T16:26:25;95573.03;;;10.50;51.74
9261;BME280;4667;42.726;23.252;2024-02-04T16:28:54;95133.53;;;7.69;51.63
9261;BME280;4667;42.726;23.252;2024-02-04T16:31:21;95574.81;;;10.49;51.88
9261;BME280;4667;42.726;23.252;2024-02-04T16:33:56;95260.75;;;8.25;52.16
9261;BME280;4667;42.726;23.252;2024-02-04T16:36:25;95382.22;;;9.03;52.41
9261;BME280;4667;42.726;23.252;2024-02-04T16:38:54;95519.91;;;10.01;52.01
9261;BME280;4667;42.726;23.252;2024-02-04T16:41:20;95472.03;;;9.75;51.89
9261;BME280;4667;42.726;23.252;2024-02-04T16:43:49;95337.00;;;8.77;52.11
9261;BME280;4667;42.726;23.252;2024-02-04T16:46:18;95427.44;;;9.57;51.61
9261;BME280;4667;42.726;23.252;2024-02-04T16:48:45;95431.53;;;9.64;51.27
9261;BME280;4667;42.726;23.252;2024-02-04T16:51:12;95600.19;;;10.67;51.37
9261;BME280;4667;42.726;23.252;2024-02-04T16:53:39;95444.72;;;9.64;51.36
9261;BME280;4667;42.726;23.252;2024-02-04T16:56:06;95463.31;;;9.58;51.72
9261;BME280;4667;42.726;23.252;2024-02-04T16:58:34;95621.56;;;10.65;51.62
9261;BME280;4667;42.726;23.252;2024-02-04T17:01:01;95404.06;;;9.03;51.20
9261;BME280;4667;42.726;23.252;2024-02-04T17:03:30;95611.00;;;10.65;51.08
9261;BME280;4667;42.726;23.252;2024-02-04T17:05:58;95278.06;;;8.62;50.77
